Terminal Aerodrome Forecast
Issued by NWS

Home | Current Version | Previous Version | Text Only | Print | Product List | Glossary On
Versions: 1 2 3 4 5 6 7 8 9 10 11 12 13
000
FTUS43 KICT 141700
TAFCNU
TAF
KCNU 141720Z 1418/1518 34016G23KT P6SM BKN060
     FM150100 VRB03KT P6SM SKC
     FM151500 33006KT P6SM SKC=

USA.gov is the U.S. government's official web portal to all federal, state and local government web resources and services.